Time;durP1;ratioP1;P1;durP2;ratioP2;P2;SDS_P1;SDS_P2;PMS_P1;PMS_P2;Temp;Humidity;BMP_temperature;BMP_pressure;BME280_temperature;BME280_humidity;BME280_pressure;Samples;Min_cycle;Max_cycle;Signal;HPM_P1;HPM_P2
2022/06/17 00:01:51;;;;;;;4.60;2.50;;;;;;;15.57;58.04;101629.78;4984478;28;20215;-70
2022/06/17 00:04:18;;;;;;;2.10;1.90;;;;;;;15.56;57.91;101630.75;4981824;23;20232;-82
2022/06/17 00:06:49;;;;;;;2.40;1.90;;;;;;;15.52;57.92;101631.88;4959946;28;20210;-84
2022/06/17 00:09:17;;;;;;;3.10;2.17;;;;;;;15.45;57.36;101623.38;4951753;28;20229;-83
2022/06/17 00:11:43;;;;;;;2.40;1.93;;;;;;;15.36;57.22;101644.63;4953696;28;20209;-84
2022/06/17 00:14:14;;;;;;;3.10;1.80;;;;;;;15.26;57.67;101639.84;4945810;29;20283;-84
2022/06/17 00:16:41;;;;;;;3.17;1.80;;;;;;;15.20;57.62;101634.06;4953970;29;20652;-83
2022/06/17 00:19:09;;;;;;;2.50;2.00;;;;;;;15.13;57.70;101633.59;4946010;29;20210;-83
2022/06/17 00:21:38;;;;;;;3.77;1.97;;;;;;;15.05;58.01;101632.41;4947599;29;20211;-83
2022/06/17 00:24:15;;;;;;;2.23;1.97;;;;;;;14.94;57.61;101625.91;4954270;29;20311;-84
2022/06/17 00:26:42;;;;;;;2.37;2.17;;;;;;;14.90;58.66;101624.38;4952047;29;20213;-83
2022/06/17 00:29:11;;;;;;;3.30;2.47;;;;;;;14.89;58.80;101627.16;4952554;29;20230;-83
2022/06/17 00:31:37;;;;;;;2.93;1.90;;;;;;;14.90;59.24;101628.88;4950210;29;20213;-82
2022/06/17 00:34:04;;;;;;;2.37;2.07;;;;;;;14.91;59.17;101633.28;4952548;29;20222;-82
2022/06/17 00:36:32;;;;;;;2.53;2.03;;;;;;;14.93;59.66;101631.38;4955341;28;20212;-81
2022/06/17 00:38:59;;;;;;;3.03;2.23;;;;;;;14.93;59.53;101631.38;4946288;28;20563;-83
2022/06/17 00:41:29;;;;;;;3.93;2.50;;;;;;;14.94;59.98;101635.78;4950980;28;20217;-82
2022/06/17 00:43:56;;;;;;;2.60;2.07;;;;;;;14.95;60.11;101648.22;4947066;29;20591;-83
2022/06/17 00:46:33;;;;;;;3.40;2.20;;;;;;;14.92;59.92;101661.84;4942765;29;20205;-83
2022/06/17 00:49:08;;;;;;;2.97;2.30;;;;;;;14.87;59.67;101654.09;4949712;29;20212;-82
2022/06/17 00:51:44;;;;;;;3.00;2.20;;;;;;;14.81;59.41;101648.28;4946158;29;20201;-84
2022/06/17 00:54:20;;;;;;;3.63;2.23;;;;;;;14.75;59.68;101638.81;4952943;29;20727;-83
2022/06/17 00:56:47;;;;;;;2.90;2.13;;;;;;;14.68;59.03;101642.88;4949773;28;20217;-82
2022/06/17 00:59:14;;;;;;;2.93;2.30;;;;;;;14.57;59.23;101650.72;4954744;29;20213;-83
2022/06/17 01:01:47;;;;;;;2.40;2.03;;;;;;;14.43;58.51;101656.97;4953235;28;20205;-83
2022/06/17 01:04:17;;;;;;;3.77;2.50;;;;;;;14.27;58.86;101671.41;4955854;28;20239;-83
2022/06/17 01:06:51;;;;;;;3.70;2.53;;;;;;;14.11;59.17;101676.84;4972640;28;20212;-83
2022/06/17 01:12:11;;;;;;;3.20;2.73;;;;;;;13.77;59.92;101664.66;4969911;28;20621;-82
2022/06/17 01:14:39;;;;;;;5.17;2.50;;;;;;;13.58;60.17;101659.56;4971448;28;20223;-82
2022/06/17 01:17:06;;;;;;;3.73;2.90;;;;;;;13.43;61.08;101644.41;4970837;28;20211;-83
2022/06/17 01:19:39;;;;;;;3.80;2.67;;;;;;;13.32;61.86;101642.34;4963884;28;20205;-82
2022/06/17 01:22:15;;;;;;;3.30;3.00;;;;;;;13.25;62.35;101646.38;4966359;28;20201;-82
2022/06/17 01:24:44;;;;;;;5.20;2.90;;;;;;;13.22;63.25;101645.69;4970748;28;20609;-82
2022/06/17 01:27:11;;;;;;;4.30;2.70;;;;;;;13.22;63.60;101651.88;4972426;28;20205;-83
2022/06/17 01:29:39;;;;;;;4.67;2.87;;;;;;;13.24;64.13;101660.69;4965423;28;20232;-82
2022/06/17 01:32:07;;;;;;;4.17;3.20;;;;;;;13.25;64.23;101654.38;4966257;28;20209;-83
2022/06/17 01:34:34;;;;;;;4.63;2.80;;;;;;;13.23;64.13;101653.63;4969188;28;20232;-82
2022/06/17 01:37:01;;;;;;;5.13;3.00;;;;;;;13.23;64.54;101653.63;4967589;28;20204;-82
2022/06/17 01:39:28;;;;;;;3.63;3.20;;;;;;;13.24;64.78;101655.34;4972253;28;20588;-82
2022/06/17 01:41:56;;;;;;;3.40;2.93;;;;;;;13.26;64.62;101657.91;4973693;28;20207;-82
2022/06/17 01:44:26;;;;;;;2.93;2.63;;;;;;;13.28;64.82;101658.66;4959763;28;20228;-81
2022/06/17 01:46:55;;;;;;;3.83;2.87;;;;;;;13.30;65.00;101659.44;4965930;28;20239;-82
2022/06/17 01:49:25;;;;;;;4.83;2.80;;;;;;;13.30;65.07;101659.44;4956706;28;20699;-81
2022/06/17 01:51:55;;;;;;;3.50;2.87;;;;;;;13.29;64.96;101663.94;4970401;28;20216;-82
2022/06/17 01:54:27;;;;;;;3.10;2.80;;;;;;;13.29;65.29;101671.09;4961850;28;20690;-83
2022/06/17 01:56:58;;;;;;;3.13;2.83;;;;;;;13.29;65.52;101681.81;4969765;28;20228;-80
2022/06/17 01:59:30;;;;;;;3.33;2.70;;;;;;;13.29;65.21;101684.47;4966525;28;20219;-82
2022/06/17 02:02:01;;;;;;;3.57;2.80;;;;;;;13.28;64.94;101672.91;4968214;28;20204;-82
2022/06/17 02:04:32;;;;;;;4.40;3.03;;;;;;;13.26;65.02;101684.66;4967074;28;20243;-84
2022/06/17 02:07:03;;;;;;;3.13;2.73;;;;;;;13.25;64.91;101693.66;4964229;28;20636;-83
2022/06/17 02:09:30;;;;;;;3.70;2.97;;;;;;;13.22;64.66;101699.19;4965505;28;20484;-82
2022/06/17 02:12:06;;;;;;;5.10;3.00;;;;;;;13.18;65.03;101693.13;4969098;28;20232;-83
2022/06/17 02:14:34;;;;;;;4.30;3.37;;;;;;;13.12;64.94;101705.00;4966419;28;20221;-83
2022/06/17 02:17:01;;;;;;;5.60;3.13;;;;;;;13.06;65.55;101710.72;4967899;28;20203;-83
2022/06/17 02:19:32;;;;;;;3.50;3.13;;;;;;;12.98;65.00;101698.72;4969796;28;20215;-83
2022/06/17 02:22:05;;;;;;;4.57;3.50;;;;;;;12.85;64.71;101701.22;4970181;28;20196;-84
2022/06/17 02:24:32;;;;;;;3.87;3.30;;;;;;;12.75;64.97;101695.53;4966008;28;20228;-83
2022/06/17 02:27:03;;;;;;;3.30;3.00;;;;;;;12.65;64.39;101710.34;4965910;28;20214;-83
2022/06/17 02:29:33;;;;;;;4.57;2.50;;;;;;;12.55;64.68;101701.09;4962868;28;20244;-81
2022/06/17 02:32:03;;;;;;;3.20;3.00;;;;;;;12.41;64.04;101704.53;4965743;28;20215;-82
2022/06/17 02:34:31;;;;;;;3.60;3.10;;;;;;;12.27;64.21;101700.88;4965992;28;20231;-82
2022/06/17 02:37:02;;;;;;;3.77;3.33;;;;;;;12.16;64.96;101691.66;4963967;28;20666;-82
2022/06/17 02:39:29;;;;;;;3.43;3.20;;;;;;;12.11;65.66;101684.81;4967802;28;20204;-81
2022/06/17 02:41:57;;;;;;;3.73;3.10;;;;;;;12.10;65.65;101683.09;4971476;28;20208;-82
2022/06/17 02:44:32;;;;;;;5.10;3.33;;;;;;;12.06;66.19;101678.84;4971094;28;20230;-82
2022/06/17 02:47:01;;;;;;;4.33;3.93;;;;;;;12.04;66.77;101676.28;4961549;28;20203;-82
2022/06/17 02:49:31;;;;;;;3.73;3.30;;;;;;;12.05;67.06;101667.31;4962709;28;20232;-81
2022/06/17 02:52:00;;;;;;;5.33;3.40;;;;;;;12.08;67.19;101666.28;4969665;28;20215;-81
2022/06/17 02:54:32;;;;;;;5.33;3.67;;;;;;;12.10;67.51;101667.06;4970372;28;20229;-82
2022/06/17 02:57:01;;;;;;;5.27;3.30;;;;;;;12.13;67.40;101666.91;4968152;28;20212;-82
2022/06/17 02:59:33;;;;;;;3.70;3.20;;;;;;;12.15;67.27;101665.91;4965825;28;20208;-81
2022/06/17 03:02:05;;;;;;;3.90;3.53;;;;;;;12.18;67.79;101669.34;4968041;28;20686;-82
2022/06/17 03:04:33;;;;;;;4.23;3.30;;;;;;;12.20;67.78;101675.44;4967871;28;20232;-81
2022/06/17 03:07:01;;;;;;;3.97;3.23;;;;;;;12.22;67.43;101670.88;4960871;28;20408;-81
2022/06/17 03:09:30;;;;;;;3.70;3.40;;;;;;;12.21;68.02;101678.03;4969791;28;20311;-82
2022/06/17 03:11:59;;;;;;;5.53;3.87;;;;;;;12.18;67.77;101678.22;4966427;28;20214;-81
2022/06/17 03:14:30;;;;;;;3.80;3.40;;;;;;;12.15;67.72;101681.91;4956236;28;20229;-80
2022/06/17 03:17:01;;;;;;;8.37;3.93;;;;;;;12.13;67.88;101677.59;4962401;28;20205;-82
2022/06/17 03:19:29;;;;;;;4.10;3.10;;;;;;;12.10;68.10;101675.09;4964171;28;20206;-82
2022/06/17 03:21:56;;;;;;;4.77;3.90;;;;;;;12.06;68.32;101679.72;4960172;28;20293;-81
2022/06/17 03:24:26;;;;;;;7.40;3.90;;;;;;;12.04;68.74;101680.75;4961463;28;20302;-82
2022/06/17 03:26:58;;;;;;;4.30;3.90;;;;;;;12.02;69.23;101680.81;4965186;28;20200;-83
2022/06/17 03:29:26;;;;;;;3.80;3.17;;;;;;;11.97;68.69;101680.22;4964476;28;20316;-82
2022/06/17 03:32:00;;;;;;;4.43;3.47;;;;;;;11.94;69.10;101683.06;4961862;28;20210;-84
2022/06/17 03:34:34;;;;;;;6.07;3.90;;;;;;;11.88;69.01;101679.81;4958254;28;20702;-83
2022/06/17 03:37:07;;;;;;;3.77;3.17;;;;;;;11.81;69.47;101674.84;4958030;28;20206;-83
2022/06/17 03:39:38;;;;;;;4.33;3.77;;;;;;;11.77;69.74;101683.06;4966338;28;20915;-84
2022/06/17 03:42:11;;;;;;;4.73;3.53;;;;;;;11.76;70.03;101681.34;4961095;28;20207;-82
2022/06/17 03:44:44;;;;;;;4.10;3.10;;;;;;;11.76;70.51;101684.00;4962055;28;20240;-82
2022/06/17 03:47:17;;;;;;;4.87;3.60;;;;;;;11.80;70.62;101681.09;4963815;28;20209;-84
2022/06/17 03:49:49;;;;;;;3.83;3.50;;;;;;;11.85;70.70;101677.31;4959893;28;20230;-82
2022/06/17 03:52:22;;;;;;;4.83;3.70;;;;;;;11.88;70.76;101678.03;4960377;28;20212;-83
2022/06/17 03:54:48;;;;;;;6.47;3.73;;;;;;;11.94;71.05;101682.19;4963892;28;20600;-84
2022/06/17 03:57:17;;;;;;;4.90;3.27;;;;;;;11.99;71.15;101683.69;4969238;28;20212;-82
2022/06/17 03:59:49;;;;;;;4.43;3.73;;;;;;;12.08;71.30;101687.66;4963620;28;20708;-82
2022/06/17 04:02:19;;;;;;;4.53;3.70;;;;;;;12.13;71.05;101685.63;4958137;28;20224;-82
2022/06/17 04:04:50;;;;;;;5.63;3.63;;;;;;;12.20;71.27;101696.81;4962813;28;20762;-82
2022/06/17 04:07:17;;;;;;;4.17;3.77;;;;;;;12.22;71.53;101695.78;4959402;28;20263;-80
2022/06/17 04:09:46;;;;;;;3.53;3.23;;;;;;;12.25;71.34;101697.44;4960665;28;20225;-81
2022/06/17 04:12:21;;;;;;;4.33;3.57;;;;;;;12.26;71.69;101700.03;4959196;28;20212;-82
2022/06/17 04:14:53;;;;;;;3.77;3.40;;;;;;;12.30;72.14;101698.91;4963831;28;20252;-81
2022/06/17 04:17:28;;;;;;;4.40;3.63;;;;;;;12.34;72.39;101699.63;4955431;28;20220;-80
2022/06/17 04:20:16;;;;;;;4.57;3.97;;;;;;;12.38;72.80;101703.84;4963657;28;20786;-81
2022/06/17 04:22:46;;;;;;;4.30;3.90;;;;;;;12.43;72.81;101704.47;4959641;28;20208;-82
2022/06/17 04:25:18;;;;;;;6.03;3.87;;;;;;;12.47;73.04;101701.53;4963069;28;20205;-81
2022/06/17 04:30:33;;;;;;;7.90;3.90;;;;;;;12.58;74.10;101698.28;4958119;28;20221;-81
2022/06/17 04:33:06;;;;;;;5.63;4.00;;;;;;;12.65;74.53;101696.13;4956854;28;20229;-82
2022/06/17 04:35:35;;;;;;;5.43;3.80;;;;;;;12.69;74.97;101695.03;4966805;28;20220;-82
2022/06/17 04:38:01;;;;;;;6.30;4.30;;;;;;;12.74;75.03;101693.78;4965213;28;20206;-81
2022/06/17 04:40:36;;;;;;;4.87;3.80;;;;;;;12.80;74.79;101687.25;4966136;28;20211;-81
2022/06/17 04:43:19;;;;;;;4.20;3.80;;;;;;;12.85;74.94;101679.84;4963103;28;20205;-81
2022/06/17 04:45:55;;;;;;;6.97;3.87;;;;;;;12.89;74.64;101676.06;4960561;28;20588;-81
2022/06/17 04:48:23;;;;;;;4.77;4.27;;;;;;;12.93;74.66;101680.25;4965245;28;20204;-80
2022/06/17 04:50:49;;;;;;;5.30;3.63;;;;;;;12.97;74.59;101681.81;4959926;28;20240;-81
2022/06/17 04:53:17;;;;;;;5.10;3.77;;;;;;;12.99;74.44;101679.91;4956795;28;20618;-80
2022/06/17 04:55:45;;;;;;;5.10;3.67;;;;;;;13.03;74.36;101681.47;4962234;28;20211;-81
2022/06/17 04:58:13;;;;;;;6.43;3.60;;;;;;;13.07;74.27;101683.03;4966211;28;20208;-80
2022/06/17 05:00:45;;;;;;;4.57;4.17;;;;;;;13.11;74.19;101681.88;4963530;28;20204;-82
2022/06/17 05:03:11;;;;;;;6.03;4.43;;;;;;;13.15;74.15;101679.94;4962153;28;20893;-82
2022/06/17 05:05:41;;;;;;;5.87;3.57;;;;;;;13.21;74.70;101682.25;4958912;28;20217;-81
2022/06/17 05:08:15;;;;;;;5.23;4.20;;;;;;;13.25;74.19;101682.97;4966403;28;20200;-80
2022/06/17 05:10:46;;;;;;;5.00;4.13;;;;;;;13.32;74.79;101695.88;4973323;28;20212;-80
2022/06/17 05:13:18;;;;;;;4.93;4.43;;;;;;;13.40;74.57;101688.28;4964640;28;20228;-80
2022/06/17 05:15:45;;;;;;;5.13;3.87;;;;;;;13.46;75.06;101693.25;4969124;28;20222;-81
2022/06/17 05:18:12;;;;;;;5.23;4.40;;;;;;;13.55;75.05;101691.84;4967724;28;20212;-81
2022/06/17 05:20:42;;;;;;;5.20;4.43;;;;;;;13.63;75.23;101691.38;4971739;28;20203;-80
2022/06/17 05:23:10;;;;;;;5.20;3.97;;;;;;;13.71;75.21;101691.78;4969437;28;20259;-81
2022/06/17 05:25:40;;;;;;;9.00;4.60;;;;;;;13.80;75.50;101686.72;4966736;28;20212;-79
2022/06/17 05:28:08;;;;;;;4.87;4.37;;;;;;;13.87;75.30;101689.91;4968413;28;20234;-81
2022/06/17 05:30:36;;;;;;;5.07;4.07;;;;;;;13.94;75.23;101699.31;4973994;28;20234;-80
2022/06/17 05:33:03;;;;;;;5.30;3.73;;;;;;;14.02;75.00;101698.81;4968278;28;20225;-80
2022/06/17 05:35:31;;;;;;;5.10;4.60;;;;;;;14.11;75.07;101701.81;4959912;28;20235;-80
2022/06/17 05:37:59;;;;;;;5.77;4.37;;;;;;;14.20;75.10;101709.28;4968681;28;20263;-81
2022/06/17 05:40:26;;;;;;;4.90;4.10;;;;;;;14.31;75.02;101710.44;4955667;28;20205;-81
2022/06/17 05:42:53;;;;;;;5.00;4.27;;;;;;;14.45;75.43;101716.69;4971394;28;20644;-80
2022/06/17 05:45:23;;;;;;;5.43;4.20;;;;;;;14.62;75.27;101717.47;4973809;28;20234;-81
2022/06/17 05:47:50;;;;;;;5.03;3.90;;;;;;;14.79;75.38;101711.88;4969086;28;20205;-81
2022/06/17 05:50:18;;;;;;;5.37;3.80;;;;;;;14.96;74.34;101706.28;4968224;28;20320;-81
2022/06/17 05:52:50;;;;;;;3.87;3.17;;;;;;;15.15;73.29;101703.25;4973299;28;20208;-79
2022/06/17 05:55:19;;;;;;;7.77;3.67;;;;;;;15.34;72.00;101700.22;4965316;28;20210;-81
2022/06/17 05:57:45;;;;;;;4.77;3.37;;;;;;;15.54;71.41;101707.81;4962482;28;20248;-80
2022/06/17 06:00:13;;;;;;;5.37;3.30;;;;;;;15.74;70.25;101699.31;4969659;28;20201;-82
2022/06/17 06:02:40;;;;;;;6.47;3.37;;;;;;;15.95;68.68;101702.31;4970562;28;20206;-80
2022/06/17 06:05:08;;;;;;;6.67;3.27;;;;;;;16.16;67.11;101706.19;4965237;28;20237;-81
2022/06/17 06:07:35;;;;;;;4.50;2.93;;;;;;;16.38;66.20;101699.31;4967726;28;20214;-81
2022/06/17 06:10:01;;;;;;;4.43;3.43;;;;;;;16.59;65.23;101697.78;4964712;28;20236;-81
2022/06/17 06:15:11;;;;;;;4.20;2.60;;;;;;;17.05;62.38;101699.84;4967481;28;20310;-79
2022/06/17 06:17:37;;;;;;;4.10;2.57;;;;;;;17.24;61.44;101698.34;4961513;28;20231;-81
2022/06/17 06:20:05;;;;;;;4.83;3.00;;;;;;;17.46;60.41;101694.91;4971088;28;20213;-81
2022/06/17 06:22:31;;;;;;;4.77;3.17;;;;;;;17.63;59.47;101696.31;4970643;28;20215;-80
2022/06/17 06:24:58;;;;;;;4.83;2.60;;;;;;;17.84;59.05;101701.94;4968627;28;20602;-80
2022/06/17 06:27:24;;;;;;;6.30;2.90;;;;;;;18.06;58.36;101717.31;4969158;28;20215;-80
2022/06/17 06:29:52;;;;;;;3.73;2.43;;;;;;;18.27;57.90;101721.03;4972456;28;20322;-81
2022/06/17 06:32:19;;;;;;;4.80;2.53;;;;;;;18.48;57.37;101732.78;4971394;28;20212;-80
2022/06/17 06:34:46;;;;;;;3.17;2.50;;;;;;;18.69;56.07;101731.13;4967807;28;20237;-80
2022/06/17 06:37:13;;;;;;;3.13;2.63;;;;;;;18.87;55.41;101727.91;4968031;28;20279;-80
2022/06/17 06:39:40;;;;;;;5.37;2.33;;;;;;;19.06;55.04;101725.44;4964227;28;20715;-80
2022/06/17 06:42:07;;;;;;;5.47;2.70;;;;;;;19.24;54.06;101715.81;4962337;28;20591;-80
2022/06/17 06:44:33;;;;;;;2.63;2.43;;;;;;;19.37;53.08;101726.44;4970486;28;20242;-81
2022/06/17 06:47:01;;;;;;;3.83;2.50;;;;;;;19.46;52.36;101720.31;4964207;28;20209;-81
2022/06/17 06:49:27;;;;;;;2.77;2.27;;;;;;;19.60;52.16;101722.72;4969698;28;20578;-80
2022/06/17 06:51:54;;;;;;;5.67;2.77;;;;;;;19.77;51.80;101715.88;4970762;28;20224;-81
2022/06/17 06:54:21;;;;;;;2.90;2.27;;;;;;;19.99;51.08;101723.88;4968266;28;20228;-81
2022/06/17 06:56:47;;;;;;;3.30;2.10;;;;;;;20.20;51.03;101714.91;4968666;28;20213;-79
2022/06/17 06:59:15;;;;;;;4.77;2.43;;;;;;;20.41;50.18;101719.34;4956079;28;20207;-79
2022/06/17 07:01:42;;;;;;;2.97;1.97;;;;;;;20.59;49.07;101713.28;4956258;28;20216;-81
2022/06/17 07:04:09;;;;;;;4.27;2.10;;;;;;;20.73;48.85;101712.91;4952754;29;20240;-81
2022/06/17 07:06:36;;;;;;;5.70;2.50;;;;;;;20.89;48.42;101710.53;4962075;28;20223;-80
2022/06/17 07:09:03;;;;;;;5.13;2.37;;;;;;;21.03;47.61;101712.84;4966779;28;20206;-81
2022/06/17 07:11:29;;;;;;;2.67;2.25;;;;;;;21.18;47.33;101707.88;4971875;28;20231;-80
2022/06/17 07:13:56;;;;;;;3.83;2.10;;;;;;;21.33;47.70;101711.06;4968889;28;20235;-80
2022/06/17 07:16:22;;;;;;;5.25;2.47;;;;;;;21.53;47.18;101703.81;4961323;28;20730;-82
2022/06/17 07:18:49;;;;;;;5.20;2.40;;;;;;;21.69;45.94;101709.50;4962267;28;20218;-81
2022/06/17 07:21:17;;;;;;;8.80;2.58;;;;;;;21.81;45.18;101702.97;4972164;28;20570;-81
2022/06/17 07:23:45;;;;;;;5.07;2.33;;;;;;;21.95;44.77;101707.94;4965686;28;20588;-80
2022/06/17 07:26:15;;;;;;;4.13;2.13;;;;;;;22.09;44.13;101699.34;4958308;28;20209;-80
2022/06/17 07:28:42;;;;;;;4.32;2.10;;;;;;;22.24;43.50;101709.75;4969947;28;20208;-81
2022/06/17 07:31:08;;;;;;;4.53;2.40;;;;;;;22.36;42.82;101709.44;4964560;28;20237;-81
2022/06/17 07:33:35;;;;;;;2.95;2.00;;;;;;;22.45;41.78;101719.41;4963788;28;20234;-80
2022/06/17 07:36:04;;;;;;;3.25;1.90;;;;;;;22.54;41.72;101716.81;4969986;28;20218;-81
2022/06/17 07:41:31;;;;;;;2.10;1.90;;;;;;;22.71;40.26;101719.59;4903043;29;20298;-80
2022/06/17 07:43:58;;;;;;;3.88;2.15;;;;;;;22.82;40.31;101713.97;4944157;28;20316;-81
2022/06/17 07:46:24;;;;;;;6.68;2.58;;;;;;;22.93;39.63;101728.38;4952318;28;20216;-81
2022/06/17 07:48:51;;;;;;;3.88;2.20;;;;;;;22.96;38.56;101728.91;4968517;28;20215;-81
2022/06/17 07:51:17;;;;;;;4.75;2.25;;;;;;;23.02;38.94;101722.03;4972464;28;20226;-81
2022/06/17 07:53:45;;;;;;;3.63;2.00;;;;;;;23.12;39.17;101704.63;4971672;28;20224;-82
2022/06/17 07:56:15;;;;;;;3.78;1.83;;;;;;;23.17;38.81;101690.59;4971392;28;20208;-83
2022/06/17 07:58:42;;;;;;;3.83;1.90;;;;;;;23.23;39.13;101683.72;4961574;28;20216;-80
2022/06/17 08:01:09;;;;;;;5.85;2.38;;;;;;;23.31;39.01;101681.06;4972850;28;20196;-81
2022/06/17 08:03:35;;;;;;;2.75;2.38;;;;;;;23.41;38.77;101682.72;4970325;28;20262;-84
2022/06/17 08:06:02;;;;;;;2.85;1.95;;;;;;;23.51;38.20;101678.06;4964215;28;20208;-81
2022/06/17 08:08:30;;;;;;;4.85;2.00;;;;;;;23.59;37.74;101677.28;4959713;28;20220;-80
2022/06/17 08:11:00;;;;;;;4.20;2.30;;;;;;;23.63;37.76;101680.56;4961661;28;20690;-82
2022/06/17 08:13:27;;;;;;;3.20;2.33;;;;;;;23.70;38.22;101679.75;4971659;28;20235;-80
2022/06/17 08:15:58;;;;;;;5.03;2.30;;;;;;;23.83;38.84;101673.91;4964004;28;20686;-82
2022/06/17 08:18:26;;;;;;;3.95;2.42;;;;;;;23.90;39.16;101674.97;4959141;28;20201;-80
2022/06/17 08:20:52;;;;;;;3.83;2.20;;;;;;;23.97;38.82;101670.63;4960356;28;20208;-81
2022/06/17 08:23:19;;;;;;;4.80;2.30;;;;;;;24.03;37.27;101666.38;4968285;28;20229;-79
2022/06/17 08:25:46;;;;;;;3.28;1.80;;;;;;;24.07;37.01;101660.47;4964223;28;20201;-80
2022/06/17 08:28:15;;;;;;;2.95;2.20;;;;;;;24.20;36.82;101670.91;4965632;28;20216;-81
2022/06/17 08:30:45;;;;;;;3.35;1.90;;;;;;;24.29;37.23;101678.16;4971280;28;20601;-81
2022/06/17 08:33:12;;;;;;;2.28;1.90;;;;;;;24.41;36.73;101670.56;4966778;28;20224;-80
2022/06/17 08:35:42;;;;;;;3.58;2.30;;;;;;;24.49;36.48;101673.34;4966911;28;20691;-83
2022/06/17 08:38:15;;;;;;;4.03;2.00;;;;;;;24.56;36.83;101677.94;4974521;28;20215;-83
2022/06/17 08:40:55;;;;;;;3.15;2.30;;;;;;;24.69;36.94;101680.25;4978986;28;20208;-83
2022/06/17 08:43:51;;;;;;;4.03;2.40;;;;;;;24.81;36.43;101673.47;4971263;28;20230;-83
2022/06/17 08:46:28;;;;;;;5.28;2.60;;;;;;;24.85;36.70;101674.00;4973937;28;20204;-83
2022/06/17 08:49:09;;;;;;;2.88;2.22;;;;;;;24.91;36.84;101659.69;4963503;28;20200;-83
2022/06/17 08:51:57;;;;;;;2.72;2.20;;;;;;;25.00;37.15;101668.78;4967745;28;20244;-80
2022/06/17 08:54:46;;;;;;;5.43;2.40;;;;;;;25.07;36.72;101659.78;4962811;28;20235;-80
2022/06/17 08:57:19;;;;;;;2.35;2.15;;;;;;;25.10;37.32;101664.03;4970673;28;20208;-80
2022/06/17 09:00:05;;;;;;;4.45;2.00;;;;;;;25.16;37.10;101666.94;4957089;29;20632;-81
2022/06/17 09:02:45;;;;;;;4.32;2.60;;;;;;;25.21;36.68;101659.13;4964209;28;20303;-81
2022/06/17 09:05:24;;;;;;;3.17;2.38;;;;;;;25.25;36.47;101648.75;4970948;28;20234;-80
2022/06/17 09:08:03;;;;;;;2.78;2.10;;;;;;;25.32;37.44;101648.91;4965037;28;20201;-80
2022/06/17 09:10:37;;;;;;;3.85;2.00;;;;;;;25.44;37.32;101653.84;4976081;28;20227;-81
2022/06/17 09:13:20;;;;;;;3.70;1.90;;;;;;;25.59;37.01;101648.59;4976489;28;20203;-80
2022/06/17 09:15:57;;;;;;;2.83;2.03;;;;;;;25.69;36.68;101634.78;4977384;28;20204;-79
2022/06/17 09:18:29;;;;;;;2.75;1.95;;;;;;;25.76;36.20;101635.81;4976435;28;20744;-80
2022/06/17 09:21:02;;;;;;;3.60;2.10;;;;;;;25.81;35.79;101634.25;4976628;28;20263;-80
2022/06/17 09:23:34;;;;;;;4.18;2.10;;;;;;;25.84;36.39;101631.19;4974701;28;20238;-80
2022/06/17 09:26:05;;;;;;;2.35;2.15;;;;;;;25.85;35.52;101629.31;4972386;28;20587;-81
2022/06/17 09:28:38;;;;;;;2.70;2.03;;;;;;;25.83;35.89;101625.91;4973749;28;20207;-81
2022/06/17 09:31:12;;;;;;;2.15;1.83;;;;;;;25.88;35.73;101637.16;4961431;28;20235;-80
2022/06/17 09:33:43;;;;;;;3.63;1.83;;;;;;;25.89;35.72;101631.53;4968608;28;20219;-81
2022/06/17 09:36:16;;;;;;;3.35;2.08;;;;;;;25.98;35.72;101629.63;4964176;28;20212;-81
2022/06/17 09:38:51;;;;;;;6.13;2.40;;;;;;;26.07;35.10;101628.59;4970342;28;20204;-81
2022/06/17 09:41:24;;;;;;;2.83;1.77;;;;;;;26.15;34.53;101635.91;4965435;28;20290;-81
2022/06/17 09:43:56;;;;;;;3.38;1.48;;;;;;;26.23;34.53;101634.00;4974361;28;20232;-81
2022/06/17 09:46:27;;;;;;;1.50;1.40;;;;;;;26.35;34.52;101636.38;4976438;28;20199;-80
2022/06/17 09:49:00;;;;;;;1.95;1.33;;;;;;;26.49;33.72;101639.25;4970787;28;20197;-81
2022/06/17 09:51:34;;;;;;;4.55;1.95;;;;;;;26.62;33.74;101635.94;4975098;28;20224;-81
2022/06/17 09:54:05;;;;;;;1.75;1.60;;;;;;;26.73;33.53;101630.06;4968367;28;20234;-80
2022/06/17 09:56:40;;;;;;;3.47;1.60;;;;;;;26.84;33.40;101631.56;4975952;28;20219;-81
2022/06/17 09:59:16;;;;;;;4.47;1.50;;;;;;;26.86;32.73;101635.81;4968499;28;20208;-81
2022/06/17 10:01:45;;;;;;;2.40;1.40;;;;;;;26.86;32.94;101630.34;4972462;28;20251;-83
2022/06/17 10:04:14;;;;;;;4.07;1.70;;;;;;;26.90;32.69;101628.94;4978894;28;20785;-82
2022/06/17 10:06:51;;;;;;;3.38;1.45;;;;;;;26.93;32.74;101635.94;4977180;28;20236;-83
2022/06/17 10:09:37;;;;;;;1.38;1.10;;;;;;;26.98;32.45;101632.69;4967797;28;20201;-82
2022/06/17 10:12:11;;;;;;;3.67;1.67;;;;;;;27.05;32.42;101639.97;4959164;29;20224;-83
2022/06/17 10:14:53;;;;;;;2.78;1.50;;;;;;;27.15;32.66;101640.63;4972132;28;20233;-83
2022/06/17 10:20:29;;;;;;;4.05;1.50;;;;;;;27.43;31.72;101640.06;4955691;29;20208;-81
2022/06/17 10:23:07;;;;;;;2.80;1.20;;;;;;;27.48;31.42;101641.22;4955933;29;20550;-82
2022/06/17 10:25:45;;;;;;;1.95;1.40;;;;;;;27.50;31.97;101643.75;4955528;29;20193;-80
2022/06/17 10:28:27;;;;;;;1.42;1.27;;;;;;;27.55;31.84;101631.25;4955704;29;20199;-82
2022/06/17 10:30:59;;;;;;;2.72;1.77;;;;;;;27.53;31.68;101633.31;4955442;29;20227;-82
2022/06/17 10:33:30;;;;;;;2.85;1.52;;;;;;;27.58;31.67;101630.91;4955724;29;20710;-81
2022/06/17 10:35:57;;;;;;;3.13;1.63;;;;;;;27.63;31.67;101639.41;4955845;29;20192;-84
2022/06/17 10:38:28;;;;;;;2.35;1.77;;;;;;;27.68;31.65;101635.25;4954962;29;20212;-82
2022/06/17 10:40:54;;;;;;;2.53;1.77;;;;;;;27.75;31.78;101633.50;4955273;28;20200;-80
2022/06/17 10:43:23;;;;;;;2.58;1.60;;;;;;;27.74;31.81;101627.16;4973872;28;20220;-81
2022/06/17 10:45:50;;;;;;;1.67;1.40;;;;;;;27.79;32.08;101629.31;4974214;28;20208;-81
2022/06/17 10:48:25;;;;;;;2.00;1.70;;;;;;;27.87;31.23;101629.25;4974316;28;20231;-82
2022/06/17 10:50:53;;;;;;;3.10;1.65;;;;;;;27.89;31.09;101635.41;4974835;28;20200;-81
2022/06/17 10:53:28;;;;;;;2.42;1.45;;;;;;;27.91;30.98;101630.59;4974351;28;20228;-83
2022/06/17 10:55:59;;;;;;;2.15;1.50;;;;;;;27.91;30.16;101622.38;4957860;28;20824;-83
2022/06/17 10:58:29;;;;;;;2.53;1.40;;;;;;;27.85;30.55;101634.06;4954718;29;20193;-82
2022/06/17 11:00:59;;;;;;;2.67;1.52;;;;;;;27.78;31.31;101624.88;4954815;29;20857;-83
2022/06/17 11:03:30;;;;;;;4.82;1.60;;;;;;;27.80;31.03;101622.81;4954372;29;20279;-83
2022/06/17 11:06:02;;;;;;;1.85;1.42;;;;;;;27.89;30.79;101627.19;4955095;29;20189;-81
2022/06/17 11:08:34;;;;;;;3.58;1.23;;;;;;;27.99;30.24;101628.59;4971141;28;20210;-81
2022/06/17 11:13:43;;;;;;;2.47;1.50;;;;;;;28.19;30.27;101612.50;4959176;28;20272;-81
2022/06/17 11:16:10;;;;;;;2.17;1.60;;;;;;;28.19;30.29;101607.03;4974894;28;20216;-81
2022/06/17 11:18:38;;;;;;;3.47;1.65;;;;;;;28.16;30.33;101607.38;4974054;28;20556;-80
2022/06/17 11:21:09;;;;;;;1.63;1.52;;;;;;;28.13;30.89;101605.00;4960459;28;20212;-81
2022/06/17 11:23:41;;;;;;;3.10;1.33;;;;;;;28.11;30.49;101592.56;4974328;28;20228;-81
2022/06/17 11:26:13;;;;;;;1.95;1.58;;;;;;;28.10;30.38;101597.19;4972446;28;20597;-81
2022/06/17 11:28:43;;;;;;;2.13;1.60;;;;;;;28.13;30.66;101595.94;4954591;29;20205;-80
2022/06/17 11:31:14;;;;;;;2.35;1.30;;;;;;;28.12;30.04;101586.91;4956939;29;20254;-83
2022/06/17 11:33:57;;;;;;;2.45;1.20;;;;;;;28.12;29.79;101584.16;4956139;29;20230;-81
2022/06/17 11:36:28;;;;;;;1.73;1.52;;;;;;;28.12;29.81;101581.41;4954745;29;20193;-80
2022/06/17 11:38:57;;;;;;;1.85;1.60;;;;;;;28.15;30.31;101574.69;4963132;28;20551;-83
2022/06/17 11:41:26;;;;;;;2.08;1.38;;;;;;;28.19;30.14;101574.16;4962241;28;20654;-82
2022/06/17 11:43:55;;;;;;;3.03;1.52;;;;;;;28.19;30.04;101581.50;4974259;28;20666;-81
2022/06/17 11:46:25;;;;;;;2.30;1.40;;;;;;;28.20;30.12;101575.84;4965907;28;20204;-80
2022/06/17 11:48:55;;;;;;;2.35;1.48;;;;;;;28.17;30.38;101567.13;4974349;28;20302;-81
2022/06/17 11:51:29;;;;;;;2.78;1.58;;;;;;;28.21;30.45;101557.53;4955268;29;20695;-81
2022/06/17 11:53:58;;;;;;;2.88;1.60;;;;;;;28.20;30.23;101553.94;4962771;28;20254;-81
2022/06/17 11:56:31;;;;;;;2.83;1.60;;;;;;;28.19;30.10;101546.75;4967923;28;20255;-80